createdAt,value
2018-11-14T00:01:12.232Z,4.73
2018-11-14T00:04:16.310Z,3.10
2018-11-14T00:07:20.444Z,4.00
2018-11-14T00:10:24.520Z,5.50
2018-11-14T00:13:28.669Z,3.60
2018-11-14T00:16:32.802Z,3.90
2018-11-14T00:19:36.949Z,3.07
2018-11-14T00:22:42.450Z,3.90
2018-11-14T00:25:46.623Z,3.40
2018-11-14T00:28:50.782Z,4.60
2018-11-14T00:31:54.915Z,13.23
2018-11-14T00:34:59.482Z,4.33
2018-11-14T00:38:03.357Z,7.07
2018-11-14T00:41:07.470Z,4.43
2018-11-14T00:44:11.559Z,4.37
2018-11-14T00:47:15.690Z,4.27
2018-11-14T00:50:20.437Z,5.03
2018-11-14T00:53:24.872Z,4.00
2018-11-14T00:56:29.053Z,4.50
2018-11-14T00:59:33.189Z,4.80
2018-11-14T01:02:38.186Z,4.33
2018-11-14T01:05:42.319Z,4.43
2018-11-14T01:08:46.568Z,4.07
2018-11-14T01:11:50.737Z,5.43
2018-11-14T01:14:54.807Z,4.60
2018-11-14T01:17:58.949Z,3.93
2018-11-14T01:21:03.070Z,4.00
2018-11-14T01:24:07.772Z,3.87
2018-11-14T01:27:12.310Z,4.40
2018-11-14T01:30:21.188Z,4.57
2018-11-14T01:33:25.343Z,4.60
2018-11-14T01:36:29.495Z,3.87
2018-11-14T01:39:33.602Z,4.60
2018-11-14T01:42:37.723Z,4.00
2018-11-14T01:45:41.839Z,4.87
2018-11-14T01:48:46.032Z,5.53
2018-11-14T01:51:50.137Z,4.20
2018-11-14T01:54:54.736Z,4.00
2018-11-14T01:57:58.872Z,4.50
2018-11-14T02:01:03.129Z,4.77
2018-11-14T02:04:07.316Z,4.53
2018-11-14T02:07:11.441Z,4.17
2018-11-14T02:10:18.108Z,4.97
2018-11-14T02:13:22.159Z,5.13
2018-11-14T02:16:26.207Z,5.00
2018-11-14T02:19:30.385Z,4.20
2018-11-14T02:22:34.541Z,4.80
2018-11-14T02:25:38.649Z,4.43
2018-11-14T02:28:42.767Z,4.53
2018-11-14T02:31:46.956Z,4.47
2018-11-14T02:34:51.127Z,5.20
2018-11-14T02:37:55.207Z,4.53
2018-11-14T02:40:59.306Z,4.83
2018-11-14T02:44:03.456Z,3.80
2018-11-14T02:47:07.537Z,5.50
2018-11-14T02:50:13.584Z,5.87
2018-11-14T02:53:17.764Z,5.47
2018-11-14T02:56:21.887Z,6.57
2018-11-14T02:59:26.019Z,7.00
2018-11-14T03:02:30.124Z,6.33
2018-11-14T03:05:34.236Z,6.03
2018-11-14T03:08:38.676Z,5.77
2018-11-14T03:11:42.780Z,7.73
2018-11-14T03:14:47.036Z,7.77
2018-11-14T03:17:51.178Z,7.27
2018-11-14T03:20:55.367Z,4.87
2018-11-14T03:23:59.521Z,5.50
2018-11-14T03:27:03.877Z,5.37
2018-11-14T03:30:10.422Z,6.50
2018-11-14T03:33:14.607Z,6.77
2018-11-14T03:36:19.975Z,5.63
2018-11-14T03:39:24.185Z,6.13
2018-11-14T03:42:28.273Z,5.50
2018-11-14T03:45:32.425Z,5.53
2018-11-14T03:48:36.571Z,4.97
2018-11-14T03:51:40.726Z,5.27
2018-11-14T03:54:44.845Z,5.93
2018-11-14T03:57:49.001Z,5.50
2018-11-14T04:00:53.131Z,5.00
2018-11-14T04:03:57.345Z,5.67
2018-11-14T04:07:01.462Z,6.17
2018-11-14T04:10:07.189Z,5.70
2018-11-14T04:13:11.277Z,5.53
2018-11-14T04:16:15.367Z,5.43
2018-11-14T04:19:19.436Z,5.50
2018-11-14T04:22:23.566Z,5.03
2018-11-14T04:25:27.679Z,7.10
2018-11-14T04:28:31.827Z,6.17
2018-11-14T04:31:35.942Z,5.90
2018-11-14T04:34:40.046Z,8.03
2018-11-14T04:37:44.228Z,5.63
2018-11-14T04:40:48.330Z,6.27
2018-11-14T04:43:52.510Z,5.30
2018-11-14T04:46:56.699Z,5.07
2018-11-14T04:50:00.784Z,4.97
2018-11-14T04:53:05.361Z,7.77
2018-11-14T04:56:09.477Z,5.87
2018-11-14T04:59:13.635Z,5.20
2018-11-14T05:02:17.825Z,5.40
2018-11-14T05:05:23.167Z,6.17
2018-11-14T05:08:27.235Z,5.57
2018-11-14T05:11:31.395Z,6.03
2018-11-14T05:14:35.545Z,6.00
2018-11-14T05:17:39.880Z,5.47
2018-11-14T05:20:43.982Z,5.80
2018-11-14T05:23:48.320Z,5.83
2018-11-14T05:26:52.416Z,5.23
2018-11-14T05:29:56.608Z,6.00
2018-11-14T05:33:00.740Z,5.53
2018-11-14T05:36:05.342Z,5.63
2018-11-14T05:39:10.964Z,5.40
2018-11-14T05:42:15.084Z,5.43
2018-11-14T05:45:22.509Z,6.00
2018-11-14T05:48:26.489Z,5.67
2018-11-14T05:51:30.793Z,5.30
2018-11-14T05:54:41.727Z,6.57
2018-11-14T05:57:46.044Z,6.70
2018-11-14T06:00:50.191Z,10.70
2018-11-14T06:03:54.300Z,9.77
2018-11-14T06:06:58.441Z,6.83
2018-11-14T06:10:02.512Z,7.63
2018-11-14T06:13:06.718Z,9.53
2018-11-14T06:16:10.862Z,14.63
2018-11-14T06:19:14.932Z,14.43
2018-11-14T06:22:19.023Z,14.47
2018-11-14T06:25:27.364Z,12.20
2018-11-14T06:28:31.457Z,10.37
2018-11-14T06:31:35.806Z,12.03
2018-11-14T06:34:39.850Z,9.27
2018-11-14T06:37:43.926Z,8.63
2018-11-14T06:40:48.109Z,8.23
2018-11-14T06:43:52.219Z,9.03
2018-11-14T06:46:56.264Z,9.73
2018-11-14T06:50:00.316Z,7.23
2018-11-14T06:53:05.718Z,6.50
2018-11-14T06:56:09.878Z,9.00
2018-11-14T06:59:14.026Z,7.60
2018-11-14T07:02:18.277Z,6.47
2018-11-14T07:05:22.473Z,7.53
2018-11-14T07:08:26.490Z,7.00
2018-11-14T07:11:30.542Z,8.80
2018-11-14T07:14:34.594Z,9.87
2018-11-14T07:17:38.784Z,6.57
2018-11-14T07:20:44.215Z,8.17
2018-11-14T07:23:48.521Z,8.80
2018-11-14T07:26:53.332Z,8.20
2018-11-14T07:29:57.411Z,10.20
2018-11-14T07:33:03.012Z,7.87
2018-11-14T07:36:07.282Z,8.30
2018-11-14T07:39:11.331Z,8.83
2018-11-14T07:42:15.399Z,8.77
2018-11-14T07:45:19.454Z,8.57
2018-11-14T07:48:23.520Z,8.87
2018-11-14T07:51:27.566Z,9.93
2018-11-14T07:54:31.676Z,7.63
2018-11-14T07:57:35.964Z,9.77
2018-11-14T08:00:40.008Z,7.03
2018-11-14T08:03:44.475Z,8.30
2018-11-14T08:06:48.633Z,7.47
2018-11-14T08:09:52.693Z,7.53
2018-11-14T08:12:56.798Z,7.87
2018-11-14T08:16:01.660Z,8.47
2018-11-14T08:19:06.203Z,8.70
2018-11-14T08:22:10.288Z,9.47
2018-11-14T08:25:14.397Z,8.03
2018-11-14T08:28:18.505Z,7.97
2018-11-14T08:31:22.582Z,7.73
2018-11-14T08:34:27.725Z,8.30
2018-11-14T08:37:31.765Z,8.00
2018-11-14T08:40:35.924Z,7.57
2018-11-14T08:43:40.145Z,6.57
2018-11-14T08:46:44.259Z,7.57
2018-11-14T08:49:48.361Z,7.87
2018-11-14T08:52:52.426Z,7.30
2018-11-14T08:55:56.543Z,7.90
2018-11-14T08:59:01.220Z,8.03
2018-11-14T09:02:06.106Z,7.33
2018-11-14T09:05:10.486Z,9.13
2018-11-14T09:08:14.712Z,7.77
2018-11-14T09:11:18.890Z,8.97
2018-11-14T09:14:22.889Z,7.67
2018-11-14T09:17:26.915Z,7.03
2018-11-14T09:20:31.002Z,5.90
2018-11-14T09:23:35.537Z,6.13
2018-11-14T09:26:39.584Z,4.93
2018-11-14T09:29:43.709Z,3.67
2018-11-14T09:32:47.935Z,4.07
2018-11-14T09:35:51.948Z,3.97
2018-11-14T09:38:55.999Z,3.90
2018-11-14T09:42:00.116Z,3.87
2018-11-14T09:45:04.566Z,4.33
2018-11-14T09:48:08.637Z,3.47
2018-11-14T09:51:12.717Z,3.93
2018-11-14T09:54:16.789Z,2.93
2018-11-14T09:57:20.872Z,3.30
2018-11-14T10:00:27.239Z,3.67
2018-11-14T10:03:31.284Z,3.60
2018-11-14T10:06:35.356Z,3.70
2018-11-14T10:09:39.408Z,3.03
2018-11-14T10:12:43.488Z,3.17
2018-11-14T10:15:47.676Z,3.50
2018-11-14T10:18:51.727Z,3.80
2018-11-14T10:21:56.097Z,3.57
2018-11-14T10:25:00.293Z,3.90
2018-11-14T10:28:04.526Z,4.13
2018-11-14T10:31:08.564Z,3.90
2018-11-14T10:34:12.628Z,3.73
2018-11-14T10:37:16.929Z,3.23
2018-11-14T10:40:24.764Z,3.40
2018-11-14T10:43:28.922Z,3.70
2018-11-14T10:46:33.153Z,4.50
2018-11-14T10:49:37.253Z,3.10
2018-11-14T10:52:41.343Z,3.43
2018-11-14T10:55:45.411Z,3.63
2018-11-14T10:58:49.616Z,3.43
2018-11-14T11:03:01.868Z,3.37
2018-11-14T11:06:10.147Z,3.67
2018-11-14T11:09:19.552Z,4.00
2018-11-14T11:12:28.919Z,3.40
2018-11-14T11:15:38.808Z,4.00
2018-11-14T11:18:42.886Z,3.40
2018-11-14T11:21:47.467Z,3.33
2018-11-14T11:24:51.519Z,3.80
2018-11-14T11:27:56.140Z,3.13
2018-11-14T11:31:00.204Z,3.50
2018-11-14T11:34:04.328Z,3.97
2018-11-14T11:37:08.416Z,3.83
2018-11-14T11:40:12.483Z,4.13
2018-11-14T11:43:16.548Z,3.87
2018-11-14T11:46:20.688Z,3.90
2018-11-14T11:49:24.893Z,2.70
2018-11-14T11:52:29.002Z,3.23
2018-11-14T11:55:33.035Z,2.97
2018-11-14T11:58:37.239Z,2.93
2018-11-14T12:01:41.312Z,3.03
2018-11-14T12:04:45.377Z,3.50
2018-11-14T12:07:49.565Z,3.30
2018-11-14T12:10:53.654Z,3.43
2018-11-14T12:13:57.727Z,3.87
2018-11-14T12:17:01.816Z,2.87
2018-11-14T12:20:07.317Z,3.37
2018-11-14T12:23:11.412Z,4.90
2018-11-14T12:26:15.474Z,3.37
2018-11-14T12:29:19.559Z,3.90
2018-11-14T12:32:23.657Z,3.83
2018-11-14T12:35:27.747Z,3.40
2018-11-14T12:38:31.810Z,3.83
2018-11-14T12:41:36.027Z,4.00
2018-11-14T12:44:40.081Z,3.90
2018-11-14T12:47:44.130Z,3.57
2018-11-14T12:50:48.408Z,4.27
2018-11-14T12:53:52.561Z,3.93
2018-11-14T12:56:56.786Z,3.50
2018-11-14T13:00:01.498Z,4.73
2018-11-14T13:03:05.993Z,4.50
2018-11-14T13:06:10.168Z,3.63
2018-11-14T13:09:14.424Z,3.87
2018-11-14T13:12:18.505Z,4.20
2018-11-14T13:15:22.618Z,3.90
2018-11-14T13:18:26.741Z,3.63
2018-11-14T13:21:31.103Z,3.60
2018-11-14T13:24:35.234Z,4.03
2018-11-14T13:27:40.366Z,4.17
2018-11-14T13:30:44.621Z,3.63
2018-11-14T13:33:48.755Z,4.60
2018-11-14T13:36:52.828Z,4.50
2018-11-14T13:39:56.991Z,4.20
2018-11-14T13:43:01.052Z,4.83
2018-11-14T13:46:05.401Z,4.20
2018-11-14T13:49:09.563Z,4.13
2018-11-14T13:52:13.536Z,4.70
2018-11-14T13:55:19.566Z,4.80
2018-11-14T13:58:23.627Z,4.13
2018-11-14T14:01:27.804Z,5.00
2018-11-14T14:04:31.810Z,4.37
2018-11-14T14:07:35.902Z,4.60
2018-11-14T14:10:39.974Z,5.37
2018-11-14T14:13:49.218Z,4.20
2018-11-14T14:16:53.328Z,4.57
2018-11-14T14:19:57.389Z,4.30
2018-11-14T14:23:01.464Z,4.77
2018-11-14T14:26:05.978Z,4.80
2018-11-14T14:29:10.317Z,4.60
2018-11-14T14:32:14.855Z,4.83
2018-11-14T14:35:20.292Z,4.53
2018-11-14T14:38:24.803Z,4.93
2018-11-14T14:41:28.940Z,5.47
2018-11-14T14:44:33.061Z,5.33
2018-11-14T14:47:37.633Z,4.90
2018-11-14T14:50:41.651Z,4.50
2018-11-14T14:53:45.799Z,5.30
2018-11-14T14:56:50.041Z,5.53
2018-11-14T14:59:54.139Z,5.27
2018-11-14T15:02:58.335Z,6.07
2018-11-14T15:06:02.478Z,5.67
2018-11-14T15:09:09.028Z,6.03
2018-11-14T15:12:13.245Z,6.60
2018-11-14T15:15:17.913Z,6.37
2018-11-14T15:18:21.996Z,5.83
2018-11-14T15:21:26.088Z,6.57
2018-11-14T15:24:30.250Z,5.80
2018-11-14T15:27:34.454Z,6.10
2018-11-14T15:30:38.633Z,5.90
2018-11-14T15:33:43.020Z,6.23
2018-11-14T15:36:47.094Z,6.10
2018-11-14T15:39:51.144Z,5.80
2018-11-14T15:42:55.683Z,6.40
2018-11-14T15:45:59.818Z,6.00
2018-11-14T15:49:04.270Z,7.17
2018-11-14T15:52:08.860Z,6.77
2018-11-14T15:55:13.923Z,6.07
2018-11-14T15:58:18.065Z,6.63
2018-11-14T16:01:22.177Z,7.43
2018-11-14T16:04:26.246Z,6.67
2018-11-14T16:07:30.371Z,6.67
2018-11-14T16:10:35.103Z,7.03
2018-11-14T16:13:39.182Z,7.03
2018-11-14T16:16:43.436Z,6.80
2018-11-14T16:19:47.757Z,6.63
2018-11-14T16:22:51.878Z,9.70
2018-11-14T16:25:55.968Z,6.90
2018-11-14T16:29:00.033Z,8.27
2018-11-14T16:32:04.126Z,7.00
2018-11-14T16:35:08.271Z,7.80
2018-11-14T16:38:12.498Z,7.37
2018-11-14T16:41:16.440Z,8.03
2018-11-14T16:44:20.527Z,7.23
2018-11-14T16:47:24.556Z,8.00
2018-11-14T16:50:28.680Z,7.43
2018-11-14T16:53:32.720Z,8.03
2018-11-14T16:56:36.811Z,8.07
2018-11-14T16:59:40.941Z,7.53
2018-11-14T17:02:45.009Z,7.83
2018-11-14T17:05:49.123Z,9.83
2018-11-14T17:08:53.186Z,7.93
2018-11-14T17:11:57.257Z,8.53
2018-11-14T17:15:01.396Z,10.90
2018-11-14T17:18:05.540Z,18.57
2018-11-14T17:21:09.654Z,13.13
2018-11-14T17:24:13.737Z,10.50
2018-11-14T17:27:17.923Z,10.80
2018-11-14T17:30:23.295Z,10.07
2018-11-14T17:33:27.371Z,11.83
2018-11-14T17:36:31.551Z,12.63
2018-11-14T17:39:35.653Z,11.07
2018-11-14T17:42:40.332Z,19.77
2018-11-14T17:45:44.440Z,8.97
2018-11-14T17:48:48.593Z,10.57
2018-11-14T17:51:52.808Z,10.70
2018-11-14T17:54:56.959Z,10.23
2018-11-14T17:58:01.227Z,11.07
2018-11-14T18:01:05.574Z,16.43
2018-11-14T18:04:09.572Z,15.43
2018-11-14T18:07:13.647Z,49.03
2018-11-14T18:10:20.153Z,25.10
2018-11-14T18:13:24.343Z,22.57
2018-11-14T18:16:28.468Z,24.17
2018-11-14T18:19:32.528Z,17.67
2018-11-14T18:22:36.623Z,19.63
2018-11-14T18:25:41.576Z,52.00
2018-11-14T18:28:45.737Z,30.67
2018-11-14T18:31:50.214Z,10.77
2018-11-14T18:34:54.315Z,11.70
2018-11-14T18:37:59.455Z,19.67
2018-11-14T18:41:03.655Z,12.47
2018-11-14T18:44:07.870Z,13.40
2018-11-14T18:47:12.013Z,14.23
2018-11-14T18:50:17.118Z,13.70
2018-11-14T18:53:21.306Z,13.33
2018-11-14T18:56:25.605Z,12.53
2018-11-14T18:59:29.877Z,16.93
2018-11-14T19:02:33.993Z,14.27
2018-11-14T19:05:38.049Z,9.00
2018-11-14T19:08:42.236Z,9.90
2018-11-14T19:11:46.308Z,10.87
2018-11-14T19:14:50.493Z,8.73
2018-11-14T19:17:55.034Z,8.60
2018-11-14T19:20:59.686Z,8.53
2018-11-14T19:24:04.080Z,9.63
2018-11-14T19:27:08.664Z,9.87
2018-11-14T19:30:16.864Z,14.77
2018-11-14T19:33:21.071Z,21.40
2018-11-14T19:36:25.424Z,14.03
2018-11-14T19:39:30.366Z,14.17
2018-11-14T19:42:34.744Z,16.53
2018-11-14T19:45:40.043Z,14.63
2018-11-14T19:48:45.109Z,13.63
2018-11-14T19:51:49.919Z,10.43
2018-11-14T19:54:54.833Z,11.20
2018-11-14T19:58:00.706Z,12.60
2018-11-14T20:01:05.299Z,10.67
2018-11-14T20:04:09.648Z,12.37
2018-11-14T20:07:13.715Z,12.27
2018-11-14T20:10:19.239Z,11.93
2018-11-14T20:13:23.525Z,11.60
2018-11-14T20:16:27.774Z,11.07
2018-11-14T20:19:31.943Z,11.10
2018-11-14T20:22:36.173Z,11.30
2018-11-14T20:25:40.254Z,11.67
2018-11-14T20:28:44.328Z,12.17
2018-11-14T20:31:48.798Z,10.67
2018-11-14T20:34:52.922Z,8.93
2018-11-14T20:37:57.065Z,9.23
2018-11-14T20:41:01.681Z,14.13
2018-11-14T20:44:06.120Z,14.90
2018-11-14T20:47:10.409Z,12.00
2018-11-14T20:50:19.853Z,17.10
2018-11-14T20:53:24.598Z,15.20
2018-11-14T20:56:29.007Z,13.13
2018-11-14T20:59:33.107Z,12.87
2018-11-14T21:02:37.752Z,13.27
2018-11-14T21:05:42.102Z,11.87
2018-11-14T21:08:46.477Z,9.20
2018-11-14T21:11:50.690Z,10.87
2018-11-14T21:14:54.989Z,10.40
2018-11-14T21:18:00.111Z,10.03
2018-11-14T21:21:04.487Z,9.33
2018-11-14T21:24:08.821Z,11.30
2018-11-14T21:27:12.974Z,12.07
2018-11-14T21:30:18.641Z,10.90
2018-11-14T21:33:22.806Z,11.30
2018-11-14T21:36:27.059Z,10.00
2018-11-14T21:39:31.271Z,8.98
2018-11-14T21:42:35.673Z,7.43
2018-11-14T21:45:39.842Z,8.43
2018-11-14T21:48:43.897Z,7.17
2018-11-14T21:51:47.992Z,7.60
2018-11-14T21:54:52.241Z,9.18
2018-11-14T21:57:56.392Z,8.43
2018-11-14T22:01:00.483Z,8.77
2018-11-14T22:04:05.000Z,8.65
2018-11-14T22:07:09.058Z,8.60
2018-11-14T22:10:16.349Z,9.50
2018-11-14T22:13:20.659Z,8.58
2018-11-14T22:16:25.017Z,10.90
2018-11-14T22:19:29.167Z,12.45
2018-11-14T22:22:33.260Z,10.85
2018-11-14T22:25:37.388Z,9.83
2018-11-14T22:28:41.452Z,11.50
2018-11-14T22:31:45.650Z,9.13
2018-11-14T22:34:49.814Z,9.98
2018-11-14T22:37:54.152Z,8.15
2018-11-14T22:40:58.254Z,8.70
2018-11-14T22:44:02.570Z,8.93
2018-11-14T22:47:06.747Z,10.25
2018-11-14T22:50:12.625Z,11.20
2018-11-14T22:53:16.687Z,9.13
2018-11-14T22:56:20.821Z,9.90
2018-11-14T22:59:25.124Z,8.83
2018-11-14T23:02:29.332Z,8.63
2018-11-14T23:05:33.429Z,9.10
2018-11-14T23:08:37.481Z,8.15
2018-11-14T23:11:42.029Z,8.93
2018-11-14T23:14:46.345Z,9.18
2018-11-14T23:17:51.241Z,8.70
2018-11-14T23:20:55.466Z,8.80
2018-11-14T23:24:00.097Z,8.38
2018-11-14T23:27:04.271Z,10.28
2018-11-14T23:30:09.837Z,8.38
2018-11-14T23:33:13.924Z,10.03
2018-11-14T23:36:17.978Z,8.35
2018-11-14T23:39:22.089Z,9.85
2018-11-14T23:42:26.257Z,9.38
2018-11-14T23:45:31.152Z,10.23
2018-11-14T23:48:35.214Z,9.18
2018-11-14T23:51:39.325Z,8.95
2018-11-14T23:54:43.457Z,8.53
2018-11-14T23:57:47.617Z,9.55
